Terminal Aerodrome Forecast
Issued by NWS

Home | Current Version | Previous Version | Text Only | Print | Product List | Glossary On
Versions: 1 2 3 4 5 6 7 8 9 10 11 12 13 14 15 16 17 18 19 20 21 22 23 24 25 26 27 28 29 30 31 32 33 34
000
FTUS43 KDTX 160300 AAA
TAFYIP
TAF AMD
KYIP 160315Z 1603/1624 30006KT P6SM SCT030 OVC060
      TEMPO 1603/1604 BKN030
     FM160600 35005KT P6SM SCT009 BKN020
     FM161000 34005KT P6SM SCT015
     FM161400 35007KT P6SM SCT025
     FM161600 31008KT P6SM BKN040
     FM162200 26006KT P6SM SCT050=

USA.gov is the U.S. government's official web portal to all federal, state and local government web resources and services.